createdAt,value
2023-03-02T00:00:10.776Z,5.62
2023-03-02T00:01:10.833Z,5.09
2023-03-02T00:02:10.906Z,5.61
2023-03-02T00:03:10.971Z,5.67
2023-03-02T00:04:11.041Z,5.60
2023-03-02T00:05:11.038Z,5.64
2023-03-02T00:06:11.090Z,6.39
2023-03-02T00:07:11.135Z,5.40
2023-03-02T00:08:11.169Z,5.63
2023-03-02T00:09:11.243Z,5.50
2023-03-02T00:10:11.258Z,5.32
2023-03-02T00:11:11.336Z,5.22
2023-03-02T00:12:11.369Z,5.67
2023-03-02T00:13:11.402Z,5.46
2023-03-02T00:14:11.499Z,6.02
2023-03-02T00:15:11.531Z,5.86
2023-03-02T00:16:11.717Z,5.53
2023-03-02T00:17:11.690Z,6.02
2023-03-02T00:18:11.676Z,5.69
2023-03-02T00:19:11.730Z,5.83
2023-03-02T00:20:11.882Z,6.20
2023-03-02T00:21:11.819Z,5.44
2023-03-02T00:22:11.860Z,5.93
2023-03-02T00:23:11.908Z,5.64
2023-03-02T00:24:11.967Z,5.69
2023-03-02T00:25:12.031Z,6.05
2023-03-02T00:26:12.110Z,5.72
2023-03-02T00:27:12.095Z,5.60
2023-03-02T00:28:12.173Z,5.87
2023-03-02T00:29:12.212Z,5.83
2023-03-02T00:30:12.365Z,5.91
2023-03-02T00:31:12.361Z,6.16
2023-03-02T00:32:12.346Z,5.54
2023-03-02T00:33:12.388Z,5.77
2023-03-02T00:34:12.447Z,6.07
2023-03-02T00:35:12.516Z,6.49
2023-03-02T00:36:12.524Z,5.74
2023-03-02T00:37:12.571Z,5.74
2023-03-02T00:38:12.656Z,5.71
2023-03-02T00:39:12.638Z,5.32
2023-03-02T00:40:12.698Z,5.50
2023-03-02T00:41:12.695Z,4.72
2023-03-02T00:42:12.773Z,5.59
2023-03-02T00:43:12.757Z,6.03
2023-03-02T00:44:12.788Z,5.83
2023-03-02T00:45:12.809Z,5.75
2023-03-02T00:46:12.898Z,5.85
2023-03-02T00:47:12.854Z,5.70
2023-03-02T00:48:12.934Z,5.56
2023-03-02T00:49:12.912Z,5.43
2023-03-02T00:50:12.946Z,5.81
2023-03-02T00:51:12.926Z,5.52
2023-03-02T00:52:12.938Z,5.95
2023-03-02T00:53:12.957Z,5.97
2023-03-02T00:54:12.990Z,5.42
2023-03-02T00:55:12.966Z,6.18
2023-03-02T00:56:12.978Z,6.28
2023-03-02T00:57:12.978Z,5.57
2023-03-02T00:58:12.978Z,5.45
2023-03-02T00:59:12.988Z,5.41
2023-03-02T01:00:12.958Z,5.31
2023-03-02T01:01:13.015Z,5.73
2023-03-02T02:09:16.314Z,6.10
2023-03-02T02:10:16.400Z,6.39
2023-03-02T02:11:16.447Z,6.11
2023-03-02T02:12:16.501Z,6.68
2023-03-02T02:13:16.589Z,5.80
2023-03-02T02:14:16.614Z,6.04
2023-03-02T02:15:16.666Z,5.52
2023-03-02T02:16:16.720Z,5.22
2023-03-02T02:18:16.831Z,5.60
2023-03-02T03:11:19.067Z,6.28
2023-03-02T03:12:19.087Z,6.23
2023-03-02T03:13:19.136Z,6.03
2023-03-02T03:14:19.160Z,5.80
2023-03-02T03:15:19.201Z,6.01
2023-03-02T03:16:19.234Z,6.17
2023-03-02T03:17:19.277Z,6.05
2023-03-02T03:18:19.271Z,6.08
2023-03-02T03:19:19.332Z,6.32
2023-03-02T03:20:19.321Z,5.79
2023-03-02T03:21:19.365Z,5.66
2023-03-02T03:22:19.401Z,5.64
2023-03-02T03:23:19.411Z,6.85
2023-03-02T03:24:19.459Z,6.36
2023-03-02T03:25:19.488Z,5.87
2023-03-02T03:26:19.527Z,6.53
2023-03-02T03:27:19.559Z,5.82
2023-03-02T03:28:19.569Z,6.04
2023-03-02T03:29:19.615Z,6.75
2023-03-02T03:30:19.603Z,6.36
2023-03-02T03:31:19.727Z,6.88
2023-03-02T03:32:19.772Z,5.80
2023-03-02T03:33:19.739Z,5.77
2023-03-02T03:34:19.701Z,5.83
2023-03-02T03:35:19.781Z,6.08
2023-03-02T03:36:19.751Z,6.06
2023-03-02T03:37:19.800Z,5.86
2023-03-02T03:38:19.764Z,6.97
2023-03-02T03:39:19.820Z,5.82
2023-03-02T03:40:19.796Z,5.75
2023-03-02T03:41:19.886Z,6.24
2023-03-02T03:42:19.929Z,5.42
2023-03-02T03:43:19.909Z,6.92
2023-03-02T03:44:19.991Z,6.94
2023-03-02T03:45:19.998Z,5.25
2023-03-02T03:46:20.054Z,6.35
2023-03-02T03:47:20.163Z,6.33
2023-03-02T03:48:20.140Z,6.19
2023-03-02T03:49:20.158Z,5.37
2023-03-02T03:50:20.187Z,6.13
2023-03-02T03:51:20.241Z,6.00
2023-03-02T03:52:20.270Z,6.21
2023-03-02T03:53:20.320Z,5.64
2023-03-02T03:54:20.394Z,6.08
2023-03-02T03:55:20.390Z,6.52
2023-03-02T03:56:20.441Z,6.20
2023-03-02T03:57:20.484Z,6.24
2023-03-02T03:58:20.572Z,5.97
2023-03-02T03:59:20.561Z,6.44
2023-03-02T04:00:20.638Z,5.93
2023-03-02T04:01:21.550Z,6.27
2023-03-02T04:02:20.750Z,6.06
2023-03-02T04:03:20.747Z,6.07
2023-03-02T04:04:20.823Z,6.28
2023-03-02T04:05:20.867Z,6.00
2023-03-02T04:06:20.923Z,5.88
2023-03-02T04:07:20.993Z,6.59
2023-03-02T04:08:21.000Z,6.27
2023-03-02T04:09:21.051Z,6.17
2023-03-02T04:10:21.122Z,6.72
2023-03-02T04:11:21.148Z,5.61
2023-03-02T04:12:21.212Z,5.30
2023-03-02T04:13:21.269Z,6.67
2023-03-02T04:14:21.316Z,5.68
2023-03-02T04:15:21.385Z,5.72
2023-03-02T04:16:21.424Z,5.85
2023-03-02T04:17:21.431Z,6.42
2023-03-02T04:18:21.510Z,5.44
2023-03-02T04:19:21.578Z,5.92
2023-03-02T04:20:21.618Z,5.72
2023-03-02T04:21:21.708Z,5.78
2023-03-02T04:22:21.737Z,5.86
2023-03-02T04:23:21.805Z,5.62
2023-03-02T04:24:21.877Z,5.73
2023-03-02T04:25:21.932Z,6.47
2023-03-02T04:26:21.982Z,5.73
2023-03-02T04:27:22.039Z,5.98
2023-03-02T04:28:22.110Z,5.97
2023-03-02T04:29:22.196Z,5.86
2023-03-02T04:30:22.220Z,5.63
2023-03-02T04:31:22.318Z,5.83
2023-03-02T04:32:22.401Z,6.04
2023-03-02T04:33:22.370Z,5.73
2023-03-02T04:34:22.448Z,6.34
2023-03-02T04:35:22.663Z,5.75
2023-03-02T04:36:22.579Z,6.39
2023-03-02T04:37:22.607Z,6.50
2023-03-02T04:38:22.683Z,6.52
2023-03-02T04:39:22.737Z,5.19
2023-03-02T04:40:22.821Z,5.82
2023-03-02T04:41:22.845Z,5.85
2023-03-02T04:42:22.888Z,5.30
2023-03-02T04:43:22.932Z,5.77
2023-03-02T04:44:23.008Z,5.98
2023-03-02T04:45:23.053Z,6.02
2023-03-02T04:46:23.209Z,6.07
2023-03-02T04:47:23.113Z,6.66
2023-03-02T04:48:23.165Z,5.89
2023-03-02T04:49:23.201Z,5.64
2023-03-02T04:50:23.260Z,6.05
2023-03-02T04:51:23.291Z,6.20
2023-03-02T04:52:23.356Z,5.94
2023-03-02T04:53:23.400Z,5.68
2023-03-02T04:54:23.470Z,6.82
2023-03-02T04:55:23.531Z,6.54
2023-03-02T04:56:23.589Z,6.03
2023-03-02T04:57:23.633Z,6.21
2023-03-02T04:58:23.692Z,5.80
2023-03-02T04:59:23.766Z,6.30
2023-03-02T05:00:23.768Z,5.33
2023-03-02T05:01:23.814Z,5.83
2023-03-02T05:02:23.957Z,7.13
2023-03-02T05:03:23.934Z,6.09
2023-03-02T05:04:24.202Z,6.11
2023-03-02T05:05:24.052Z,6.66
2023-03-02T05:06:24.109Z,5.78
2023-03-02T05:07:24.146Z,5.90
2023-03-02T05:08:24.230Z,6.05
2023-03-02T05:09:24.294Z,5.96
2023-03-02T05:12:24.419Z,6.72
2023-03-02T05:13:24.504Z,6.76
2023-03-02T05:14:24.576Z,6.55
2023-03-02T05:15:24.650Z,5.98
2023-03-02T05:16:24.707Z,6.52
2023-03-02T05:17:24.701Z,6.58
2023-03-02T05:18:24.777Z,6.16
2023-03-02T05:19:24.878Z,6.05
2023-03-02T05:20:24.901Z,5.89
2023-03-02T05:21:24.975Z,6.01
2023-03-02T05:22:25.031Z,5.74
2023-03-02T05:23:25.935Z,6.13
2023-03-02T05:43:26.305Z,6.68
2023-03-02T05:44:26.348Z,6.78
2023-03-02T05:45:26.421Z,5.89
2023-03-02T05:46:26.501Z,7.00
2023-03-02T05:47:26.583Z,6.45
2023-03-02T05:48:26.585Z,5.66
2023-03-02T05:49:26.676Z,6.18
2023-03-02T05:50:26.707Z,6.62
2023-03-02T05:51:26.788Z,6.14
2023-03-02T05:52:26.871Z,6.04
2023-03-02T05:53:26.929Z,6.37
2023-03-02T05:54:26.956Z,6.29
2023-03-02T05:55:27.043Z,6.32
2023-03-02T05:56:27.120Z,6.13
2023-03-02T05:57:27.152Z,6.40
2023-03-02T05:58:27.213Z,6.27
2023-03-02T05:59:27.276Z,6.42
2023-03-02T06:01:46.262Z,6.28
2023-03-02T06:02:46.311Z,6.22
2023-03-02T06:03:46.347Z,6.56
2023-03-02T06:04:46.437Z,6.23
2023-03-02T06:05:46.457Z,6.91
2023-03-02T06:06:46.515Z,5.99
2023-03-02T06:07:46.602Z,6.25
2023-03-02T06:08:46.606Z,6.43
2023-03-02T06:09:46.678Z,6.15
2023-03-02T06:10:46.782Z,6.58
2023-03-02T06:11:46.765Z,5.93
2023-03-02T06:12:46.826Z,6.49
2023-03-02T06:13:46.901Z,5.81
2023-03-02T06:14:46.977Z,6.38
2023-03-02T06:15:47.037Z,6.13
2023-03-02T06:16:47.174Z,5.66
2023-03-02T06:17:47.090Z,6.69
2023-03-02T06:18:47.148Z,6.85
2023-03-02T06:19:47.233Z,5.91
2023-03-02T06:20:47.244Z,6.63
2023-03-02T06:21:47.351Z,6.65
2023-03-02T06:22:47.378Z,6.01
2023-03-02T06:23:47.418Z,6.78
2023-03-02T06:24:47.470Z,5.72
2023-03-02T06:25:47.542Z,6.59
2023-03-02T06:26:47.533Z,6.26
2023-03-02T06:27:47.616Z,6.18
2023-03-02T06:28:52.684Z,6.67
2023-03-02T06:29:48.657Z,6.41
2023-03-02T06:30:47.683Z,6.27
2023-03-02T06:31:47.751Z,6.07
2023-03-02T06:32:47.750Z,6.40
2023-03-02T06:33:47.666Z,6.53
2023-03-02T06:34:47.642Z,6.48
2023-03-02T06:35:48.010Z,6.84
2023-03-02T06:36:47.609Z,9.20
2023-03-02T06:37:47.649Z,14.04
2023-03-02T06:38:47.708Z,16.92
2023-03-02T06:39:47.616Z,18.20
2023-03-02T06:40:47.896Z,19.73
2023-03-02T06:41:47.712Z,20.28
2023-03-02T06:42:47.921Z,19.41
2023-03-02T06:43:47.809Z,20.80
2023-03-02T06:44:47.846Z,18.75
2023-03-02T06:45:55.484Z,20.22
2023-03-02T06:46:47.907Z,21.54
2023-03-02T06:47:47.888Z,21.79
2023-03-02T06:48:47.910Z,21.72
2023-03-02T06:49:47.947Z,21.23
2023-03-02T06:50:47.914Z,21.98
2023-03-02T06:51:47.855Z,19.73
2023-03-02T06:52:47.884Z,22.43
2023-03-02T06:53:47.865Z,20.99
2023-03-02T06:54:47.837Z,21.07
2023-03-02T06:55:47.916Z,21.83
2023-03-02T06:56:47.895Z,21.69
2023-03-02T06:57:47.827Z,20.08
2023-03-02T06:58:47.878Z,21.78
2023-03-02T06:59:47.920Z,21.43
2023-03-02T07:00:48.571Z,22.47
2023-03-02T07:01:47.902Z,20.79
2023-03-02T07:02:48.883Z,22.19
2023-03-02T07:03:47.902Z,21.54
2023-03-02T07:04:47.886Z,22.55
2023-03-02T07:05:47.861Z,23.66
2023-03-02T07:06:47.905Z,23.30
2023-03-02T07:07:47.842Z,22.93
2023-03-02T07:08:47.801Z,22.64
2023-03-02T07:09:47.728Z,21.73
2023-03-02T07:10:47.731Z,22.57
2023-03-02T07:11:47.830Z,21.72
2023-03-02T07:12:47.834Z,23.63
2023-03-02T07:13:47.768Z,23.57
2023-03-02T07:14:47.816Z,21.37
2023-03-02T07:15:47.713Z,22.79
2023-03-02T07:16:47.824Z,22.66
2023-03-02T07:17:47.799Z,22.83
2023-03-02T07:18:47.856Z,23.50
2023-03-02T07:19:48.459Z,23.53
2023-03-02T07:20:47.919Z,22.15
2023-03-02T07:21:47.907Z,23.62
2023-03-02T07:22:47.919Z,23.20
2023-03-02T07:23:47.957Z,22.53
2023-03-02T07:24:48.043Z,23.93
2023-03-02T07:25:48.093Z,22.59
2023-03-02T07:26:48.106Z,23.27
2023-03-02T07:27:48.171Z,23.33
2023-03-02T07:28:48.193Z,23.59
2023-03-02T07:29:48.280Z,23.26
2023-03-02T07:30:48.363Z,23.21
2023-03-02T07:31:48.356Z,23.28
2023-03-02T07:32:48.363Z,20.81
2023-03-02T07:33:48.407Z,21.75
2023-03-02T07:34:48.413Z,21.70
2023-03-02T07:35:48.993Z,21.37
2023-03-02T07:36:48.462Z,20.63
2023-03-02T07:37:48.464Z,18.54
2023-03-02T07:38:48.518Z,19.01
2023-03-02T07:39:48.546Z,19.83
2023-03-02T07:40:48.920Z,17.99
2023-03-02T07:41:48.671Z,18.39
2023-03-02T07:42:48.750Z,18.37
2023-03-02T07:43:48.727Z,19.15
2023-03-02T07:44:48.733Z,18.00
2023-03-02T07:45:49.039Z,18.82
2023-03-02T07:46:48.932Z,18.39
2023-03-02T07:47:48.861Z,18.10
2023-03-02T07:48:48.880Z,18.09
2023-03-02T07:49:48.865Z,18.96
2023-03-02T07:50:48.972Z,17.08
2023-03-02T07:51:49.704Z,16.76
2023-03-02T07:52:48.950Z,16.01
2023-03-02T07:53:49.210Z,16.93
2023-03-02T07:54:49.144Z,16.61
2023-03-02T07:55:49.175Z,16.12
2023-03-02T07:56:49.178Z,15.54
2023-03-02T07:57:49.293Z,14.82
2023-03-02T07:58:49.300Z,15.48
2023-03-02T07:59:49.338Z,15.14
2023-03-02T08:00:49.409Z,14.08
2023-03-02T08:01:49.531Z,15.12
2023-03-02T08:02:49.527Z,14.45
2023-03-02T08:03:49.499Z,14.68
2023-03-02T08:04:49.605Z,14.66
2023-03-02T08:05:49.593Z,15.00
2023-03-02T08:06:49.634Z,15.18
2023-03-02T08:07:49.683Z,15.65
2023-03-02T08:08:49.676Z,13.86
2023-03-02T08:09:49.675Z,15.18
2023-03-02T08:10:49.696Z,13.69
2023-03-02T08:11:49.758Z,14.09
2023-03-02T08:12:49.749Z,16.21
2023-03-02T08:13:49.712Z,14.24
2023-03-02T08:14:49.754Z,13.90
2023-03-02T08:15:49.878Z,14.14
2023-03-02T08:16:50.019Z,13.29
2023-03-02T08:17:49.865Z,14.53
2023-03-02T08:18:49.950Z,14.36
2023-03-02T08:19:49.879Z,13.30
2023-03-02T08:20:49.860Z,13.23
2023-03-02T08:21:49.907Z,13.40
2023-03-02T08:22:49.951Z,13.69
2023-03-02T08:23:50.106Z,14.98
2023-03-02T08:24:50.051Z,14.42
2023-03-02T08:25:50.137Z,15.33
2023-03-02T08:26:50.203Z,14.42
2023-03-02T08:27:50.258Z,13.78
2023-03-02T08:28:50.300Z,15.23
2023-03-02T08:29:50.325Z,15.59
2023-03-02T08:30:50.405Z,13.75
2023-03-02T08:31:51.092Z,14.21
2023-03-02T08:32:50.550Z,14.28
2023-03-02T08:33:50.639Z,14.78
2023-03-02T08:34:50.638Z,14.40
2023-03-02T08:35:52.744Z,16.37
2023-03-02T08:36:50.759Z,17.51
2023-03-02T08:37:50.853Z,17.02
2023-03-02T08:38:50.883Z,16.76
2023-03-02T08:39:50.951Z,14.61
2023-03-02T08:40:51.021Z,17.25
2023-03-02T08:41:51.039Z,17.04
2023-03-02T08:42:51.075Z,17.24
2023-03-02T08:43:51.189Z,16.48
2023-03-02T08:44:51.187Z,18.08
2023-03-02T08:45:51.278Z,18.08
2023-03-02T08:46:51.192Z,18.04
2023-03-02T08:47:51.280Z,19.21
2023-03-02T08:48:51.312Z,18.03
2023-03-02T08:49:51.282Z,18.03
2023-03-02T08:50:51.336Z,20.09
2023-03-02T08:51:51.446Z,19.29
2023-03-02T08:52:51.304Z,17.36
2023-03-02T08:53:51.336Z,19.87
2023-03-02T08:54:51.444Z,18.75
2023-03-02T08:55:51.393Z,17.49
2023-03-02T08:56:51.437Z,17.80
2023-03-02T08:57:53.021Z,17.74
2023-03-02T08:58:51.449Z,16.47
2023-03-02T08:59:51.414Z,17.97
2023-03-02T09:00:51.556Z,18.27
2023-03-02T09:01:51.928Z,17.46
2023-03-02T09:02:51.487Z,17.81
2023-03-02T09:03:51.457Z,17.56
2023-03-02T09:04:51.460Z,18.47
2023-03-02T09:05:51.442Z,18.12
2023-03-02T09:06:51.443Z,16.69
2023-03-02T09:07:51.479Z,16.75
2023-03-02T09:08:51.569Z,17.04
2023-03-02T09:09:51.670Z,16.53
2023-03-02T09:10:51.678Z,17.27
2023-03-02T09:11:51.957Z,16.81
2023-03-02T09:12:51.716Z,16.11
2023-03-02T09:13:51.697Z,17.55
2023-03-02T09:14:51.916Z,17.65
2023-03-02T09:15:51.880Z,16.15
2023-03-02T09:16:52.069Z,18.11
2023-03-02T09:17:51.999Z,16.79
2023-03-02T09:18:52.106Z,16.11
2023-03-02T09:19:52.112Z,15.74
2023-03-02T09:20:52.168Z,15.81
2023-03-02T09:21:52.269Z,16.24
2023-03-02T09:22:52.261Z,16.31
2023-03-02T09:23:52.376Z,17.21
2023-03-02T09:24:52.432Z,14.84
2023-03-02T09:25:52.456Z,14.92
2023-03-02T09:26:52.969Z,15.90
2023-03-02T09:27:52.615Z,15.42
2023-03-02T09:28:52.687Z,16.05
2023-03-02T09:29:52.735Z,16.48
2023-03-02T09:30:52.833Z,14.89
2023-03-02T09:31:53.102Z,15.57
2023-03-02T09:32:53.024Z,14.14
2023-03-02T09:33:53.020Z,14.44
2023-03-02T09:34:53.072Z,15.05
2023-03-02T09:35:53.136Z,13.66
2023-03-02T09:36:53.184Z,14.84
2023-03-02T09:37:53.276Z,13.61
2023-03-02T09:38:53.316Z,14.19
2023-03-02T09:39:53.409Z,13.14
2023-03-02T09:40:53.372Z,16.81
2023-03-02T09:41:53.444Z,17.64
2023-03-02T09:42:53.435Z,18.53
2023-03-02T09:43:53.407Z,15.46
2023-03-02T09:44:53.513Z,16.93
2023-03-02T09:45:53.576Z,15.03
2023-03-02T09:46:53.530Z,15.16
2023-03-02T09:47:53.544Z,16.43
2023-03-02T09:48:53.590Z,16.74
2023-03-02T09:49:53.619Z,16.26
2023-03-02T09:50:53.618Z,17.03
2023-03-02T09:51:53.977Z,24.36
2023-03-02T09:52:53.706Z,23.80
2023-03-02T09:53:53.739Z,19.96
2023-03-02T09:54:53.710Z,19.23
2023-03-02T09:55:53.738Z,17.67
2023-03-02T09:56:54.002Z,19.70
2023-03-02T09:57:53.735Z,17.84
2023-03-02T09:58:53.764Z,18.33
2023-03-02T09:59:53.753Z,15.28
2023-03-02T10:00:53.801Z,15.15
2023-03-02T10:01:53.875Z,15.26
2023-03-02T10:02:53.990Z,15.41
2023-03-02T10:03:54.088Z,14.74
2023-03-02T10:04:54.014Z,15.76
2023-03-02T10:05:54.480Z,17.76
2023-03-02T10:06:54.621Z,21.43
2023-03-02T10:07:54.432Z,20.53
2023-03-02T10:08:54.470Z,22.72
2023-03-02T10:09:54.298Z,22.41
2023-03-02T10:10:54.193Z,22.58
2023-03-02T10:11:54.550Z,20.83
2023-03-02T10:12:54.218Z,16.27
2023-03-02T10:13:54.482Z,14.57
2023-03-02T10:14:54.469Z,15.47
2023-03-02T10:15:54.876Z,14.78
2023-03-02T10:16:55.101Z,15.02
2023-03-02T10:17:54.427Z,13.79
2023-03-02T10:18:54.989Z,12.93
2023-03-02T10:19:54.565Z,15.37
2023-03-02T10:20:55.317Z,18.59
2023-03-02T10:21:54.485Z,17.70
2023-03-02T10:22:55.013Z,15.90
2023-03-02T10:23:54.463Z,17.10
2023-03-02T10:24:54.482Z,14.99
2023-03-02T10:25:54.488Z,22.27
2023-03-02T10:26:54.532Z,20.79
2023-03-02T10:27:55.025Z,18.90
2023-03-02T10:28:54.902Z,18.90
2023-03-02T10:29:54.531Z,17.97
2023-03-02T10:30:54.667Z,19.01
2023-03-02T10:31:54.625Z,17.21
2023-03-02T10:32:54.611Z,20.22
2023-03-02T10:33:54.624Z,20.29
2023-03-02T10:34:54.572Z,20.03
2023-03-02T10:35:54.668Z,18.48
2023-03-02T10:36:54.598Z,20.60
2023-03-02T10:37:54.645Z,18.88
2023-03-02T10:38:54.647Z,21.58
2023-03-02T10:39:54.639Z,22.67
2023-03-02T10:40:54.605Z,16.97
2023-03-02T10:41:54.694Z,18.71
2023-03-02T10:42:54.970Z,16.88
2023-03-02T10:43:54.752Z,16.94
2023-03-02T10:44:54.747Z,18.29
2023-03-02T10:45:54.820Z,18.14
2023-03-02T10:46:54.856Z,16.78
2023-03-02T10:47:54.915Z,16.89
2023-03-02T10:48:55.424Z,16.46
2023-03-02T10:49:54.925Z,18.82
2023-03-02T10:50:54.957Z,15.82
2023-03-02T10:51:54.931Z,15.33
2023-03-02T10:52:59.893Z,14.79
2023-03-02T10:53:55.981Z,15.16
2023-03-02T10:54:54.949Z,16.81
2023-03-02T10:55:54.976Z,15.16
2023-03-02T10:56:54.987Z,15.07
2023-03-02T10:57:54.927Z,15.13
2023-03-02T10:58:56.451Z,15.13
2023-03-02T10:59:54.951Z,14.91
2023-03-02T11:00:54.902Z,14.36
2023-03-02T11:01:54.956Z,14.64
2023-03-02T11:02:55.054Z,13.01
2023-03-02T11:03:54.916Z,14.06
2023-03-02T11:04:57.339Z,13.06
2023-03-02T11:05:54.880Z,12.22
2023-03-02T11:06:54.901Z,12.01
2023-03-02T11:07:54.888Z,12.65
2023-03-02T11:08:54.869Z,12.40
2023-03-02T11:09:54.864Z,12.32
2023-03-02T11:10:56.939Z,12.24
2023-03-02T11:11:55.930Z,12.55
2023-03-02T11:12:54.830Z,11.38
2023-03-02T11:13:54.839Z,11.95
2023-03-02T11:14:54.840Z,11.29
2023-03-02T11:15:54.894Z,11.50
2023-03-02T11:16:54.811Z,10.62
2023-03-02T11:17:55.020Z,11.09
2023-03-02T11:18:54.817Z,10.41
2023-03-02T11:19:54.824Z,10.71
2023-03-02T11:20:54.791Z,10.39
2023-03-02T11:21:54.798Z,11.10
2023-03-02T11:22:54.801Z,10.30
2023-03-02T11:23:54.813Z,11.19
2023-03-02T11:24:54.755Z,9.92
2023-03-02T11:25:54.765Z,9.94
2023-03-02T11:26:54.842Z,10.45
2023-03-02T11:27:54.829Z,9.32
2023-03-02T11:28:54.952Z,9.89
2023-03-02T11:31:55.075Z,10.30
2023-03-02T11:32:55.514Z,9.39
2023-03-02T11:33:57.910Z,9.21
2023-03-02T11:34:55.201Z,9.64
2023-03-02T11:35:55.041Z,10.69
2023-03-02T11:36:55.078Z,10.20
2023-03-02T11:37:55.010Z,9.83
2023-03-02T11:38:55.050Z,9.56
2023-03-02T11:39:56.057Z,9.64
2023-03-02T11:40:54.973Z,9.84
2023-03-02T11:41:55.025Z,9.31
2023-03-02T11:42:54.987Z,9.99
2023-03-02T11:43:54.938Z,9.24
2023-03-02T11:44:54.955Z,10.74
2023-03-02T11:45:55.466Z,10.32
2023-03-02T11:46:55.395Z,10.23
2023-03-02T11:48:55.465Z,10.40
2023-03-02T11:51:58.311Z,9.42
2023-03-02T11:52:55.766Z,10.07
2023-03-02T11:53:55.039Z,9.82
2023-03-02T11:54:54.957Z,11.06
2023-03-02T11:55:54.933Z,9.76
2023-03-02T11:57:54.886Z,9.63
2023-03-02T11:58:54.848Z,10.23
2023-03-02T11:59:54.858Z,8.79
2023-03-02T12:00:54.867Z,10.14
2023-03-02T12:01:54.913Z,10.43
2023-03-02T12:02:54.825Z,10.46
2023-03-02T12:03:54.825Z,9.83
2023-03-02T12:05:54.796Z,10.15
2023-03-02T12:06:54.809Z,10.59
2023-03-02T12:07:54.811Z,10.67
2023-03-02T12:08:54.850Z,10.26
2023-03-02T12:09:54.824Z,10.79
2023-03-02T12:10:54.783Z,10.85
2023-03-02T12:11:54.777Z,12.02
2023-03-02T12:12:55.784Z,11.29
2023-03-02T12:17:54.732Z,10.58
2023-03-02T12:29:54.758Z,13.19
2023-03-02T12:30:54.711Z,13.67
2023-03-02T12:31:54.865Z,15.51
2023-03-02T13:22:56.347Z,14.06
2023-03-02T13:23:56.378Z,13.31
2023-03-02T13:24:56.405Z,11.63
2023-03-02T13:25:56.434Z,11.22
2023-03-02T13:26:56.431Z,11.85
2023-03-02T13:27:56.481Z,8.24
2023-03-02T13:28:56.515Z,9.25
2023-03-02T13:29:56.572Z,9.86
2023-03-02T13:30:56.676Z,9.51
2023-03-02T13:31:56.568Z,10.28
2023-03-02T13:32:56.596Z,9.69
2023-03-02T13:33:56.692Z,9.67
2023-03-02T13:34:56.716Z,9.59
2023-03-02T13:35:56.748Z,8.69
2023-03-02T13:36:56.789Z,8.45
2023-03-02T13:37:56.915Z,9.01
2023-03-02T13:38:56.875Z,8.64
2023-03-02T13:39:56.946Z,8.91
2023-03-02T13:40:56.914Z,8.33
2023-03-02T13:41:56.954Z,8.57
2023-03-02T13:42:56.987Z,8.71
2023-03-02T13:43:56.966Z,8.55
2023-03-02T13:44:57.003Z,9.35
2023-03-02T13:45:57.027Z,7.84
2023-03-02T13:46:57.013Z,7.58
2023-03-02T13:47:57.026Z,7.11
2023-03-02T13:49:09.230Z,7.58
2023-03-02T13:49:58.082Z,7.81
2023-03-02T13:50:57.011Z,6.90
2023-03-02T13:51:57.028Z,8.21
2023-03-02T13:52:56.996Z,8.38
2023-03-02T13:53:57.008Z,7.46
2023-03-02T13:54:57.046Z,7.81
2023-03-02T13:55:56.970Z,7.29
2023-03-02T13:56:56.982Z,7.52
2023-03-02T13:57:56.974Z,7.32
2023-03-02T13:58:57.004Z,7.50
2023-03-02T13:59:56.970Z,7.75
2023-03-02T14:00:56.946Z,7.40
2023-03-02T14:01:56.947Z,7.78
2023-03-02T14:02:56.924Z,6.73
2023-03-02T14:03:57.480Z,7.48
2023-03-02T14:04:57.038Z,7.90
2023-03-02T14:05:56.925Z,6.81
2023-03-02T14:06:56.912Z,7.33
2023-03-02T14:07:56.881Z,7.54
2023-03-02T14:08:56.913Z,8.51
2023-03-02T14:09:57.686Z,8.40
2023-03-02T14:10:56.878Z,7.78
2023-03-02T14:11:56.879Z,7.05
2023-03-02T14:12:56.847Z,7.55
2023-03-02T14:13:56.861Z,6.57
2023-03-02T14:14:56.876Z,6.76
2023-03-02T14:15:56.944Z,7.21
2023-03-02T14:16:56.835Z,7.14
2023-03-02T14:17:56.816Z,6.42
2023-03-02T14:18:56.845Z,7.54
2023-03-02T14:19:56.852Z,6.63
2023-03-02T14:20:56.876Z,7.00
2023-03-02T14:21:56.868Z,7.58
2023-03-02T14:22:56.839Z,7.00
2023-03-02T14:23:56.831Z,6.56
2023-03-02T14:24:56.785Z,6.83
2023-03-02T14:25:56.810Z,6.59
2023-03-02T14:26:56.810Z,6.37
2023-03-02T14:27:56.781Z,6.60
2023-03-02T14:29:05.551Z,7.16
2023-03-02T14:29:57.819Z,7.04
2023-03-02T14:30:56.844Z,6.84
2023-03-02T14:31:56.875Z,6.60
2023-03-02T14:32:56.945Z,6.39
2023-03-02T14:33:57.322Z,7.19
2023-03-02T14:34:56.769Z,7.11
2023-03-02T14:35:56.899Z,6.48
2023-03-02T14:36:56.760Z,7.10
2023-03-02T14:37:56.753Z,6.78
2023-03-02T14:38:56.823Z,6.34
2023-03-02T14:39:57.458Z,6.57
2023-03-02T14:40:56.808Z,7.39
2023-03-02T14:41:57.061Z,7.08
2023-03-02T14:42:57.026Z,7.61
2023-03-02T14:43:56.787Z,6.07
2023-03-02T14:44:56.912Z,6.61
2023-03-02T14:45:56.772Z,5.94
2023-03-02T14:46:56.682Z,6.19
2023-03-02T14:47:56.932Z,6.59
2023-03-02T14:48:56.847Z,6.52
2023-03-02T14:49:56.724Z,6.22
2023-03-02T14:50:56.649Z,5.77
2023-03-02T14:51:56.858Z,6.31
2023-03-02T14:52:56.665Z,5.86
2023-03-02T14:53:56.984Z,5.87
2023-03-02T14:54:56.657Z,5.85
2023-03-02T14:55:56.677Z,5.56
2023-03-02T14:56:56.664Z,5.95
2023-03-02T14:57:56.644Z,6.52
2023-03-02T14:58:56.632Z,6.31
2023-03-02T14:59:56.647Z,6.31
2023-03-02T15:00:56.608Z,6.54
2023-03-02T15:01:58.534Z,6.40
2023-03-02T15:02:56.699Z,5.67
2023-03-02T15:03:56.601Z,6.12
2023-03-02T15:04:56.823Z,6.27
2023-03-02T15:06:01.164Z,5.34
2023-03-02T15:06:57.595Z,6.05
2023-03-02T15:07:58.454Z,5.65
2023-03-02T15:08:56.577Z,6.01
2023-03-02T15:09:56.577Z,5.80
2023-03-02T15:10:56.541Z,6.22
2023-03-02T15:11:56.504Z,5.85
2023-03-02T15:12:56.535Z,6.54
2023-03-02T15:13:56.526Z,6.06
2023-03-02T15:14:56.605Z,5.93
2023-03-02T15:15:56.557Z,5.55
2023-03-02T15:16:56.522Z,6.06
2023-03-02T15:17:56.483Z,5.75
2023-03-02T15:18:58.720Z,5.93
2023-03-02T15:19:56.476Z,5.26
2023-03-02T15:20:56.483Z,6.67
2023-03-02T15:21:56.487Z,5.71
2023-03-02T15:22:56.502Z,5.64
2023-03-02T15:23:56.525Z,5.77
2023-03-02T15:24:56.556Z,5.12
2023-03-02T15:25:56.507Z,5.79
2023-03-02T15:26:56.560Z,5.83
2023-03-02T15:27:56.544Z,6.14
2023-03-02T15:28:56.500Z,5.33
2023-03-02T15:29:57.086Z,5.71
2023-03-02T15:30:56.505Z,5.08
2023-03-02T15:31:56.639Z,5.93
2023-03-02T15:32:56.524Z,5.82
2023-03-02T15:33:56.511Z,5.91
2023-03-02T15:34:56.551Z,5.57
2023-03-02T15:35:57.146Z,5.83
2023-03-02T15:36:56.483Z,5.76
2023-03-02T15:37:56.497Z,5.54
2023-03-02T15:38:56.520Z,6.11
2023-03-02T15:39:56.540Z,5.81
2023-03-02T15:40:56.530Z,5.85
2023-03-02T15:41:56.487Z,6.30
2023-03-02T15:42:56.497Z,5.55
2023-03-02T15:43:56.485Z,6.09
2023-03-02T15:44:56.510Z,4.75
2023-03-02T15:45:56.481Z,5.91
2023-03-02T15:46:56.583Z,5.07
2023-03-02T15:47:56.471Z,5.54
2023-03-02T15:48:56.504Z,5.13
2023-03-02T15:49:56.513Z,6.03
2023-03-02T15:50:56.518Z,4.93
2023-03-02T15:51:56.497Z,5.71
2023-03-02T15:52:56.495Z,5.17
2023-03-02T15:53:56.495Z,5.85
2023-03-02T15:54:56.468Z,5.34
2023-03-02T15:55:57.133Z,5.22
2023-03-02T15:56:56.499Z,5.47
2023-03-02T15:57:56.481Z,5.78
2023-03-02T15:58:56.460Z,5.56
2023-03-02T15:59:56.497Z,5.82
2023-03-02T16:00:56.530Z,5.54
2023-03-02T16:01:56.450Z,5.76
2023-03-02T16:02:56.565Z,5.33
2023-03-02T16:03:56.459Z,5.08
2023-03-02T16:04:56.637Z,5.94
2023-03-02T16:05:56.480Z,5.01
2023-03-02T16:06:56.461Z,5.26
2023-03-02T16:07:56.478Z,5.26
2023-03-02T16:08:56.470Z,5.19
2023-03-02T16:09:56.517Z,5.46
2023-03-02T16:10:56.554Z,5.31
2023-03-02T16:11:56.501Z,5.38
2023-03-02T16:12:56.531Z,5.81
2023-03-02T16:13:56.512Z,5.02
2023-03-02T16:14:56.512Z,5.61
2023-03-02T16:15:56.512Z,6.06
2023-03-02T16:16:56.597Z,5.54
2023-03-02T16:17:56.493Z,5.35
2023-03-02T16:18:56.533Z,4.79
2023-03-02T16:19:56.549Z,5.96
2023-03-02T16:20:56.539Z,6.06
2023-03-02T16:21:56.552Z,4.84
2023-03-02T16:22:56.536Z,5.03
2023-03-02T16:23:56.541Z,4.69
2023-03-02T16:24:56.571Z,5.06
2023-03-02T16:25:56.547Z,5.25
2023-03-02T16:26:56.588Z,5.09
2023-03-02T16:27:56.600Z,6.52
2023-03-02T16:28:56.603Z,5.37
2023-03-02T16:29:56.636Z,5.52
2023-03-02T16:30:56.623Z,4.99
2023-03-02T16:31:56.731Z,5.06
2023-03-02T16:32:56.628Z,5.48
2023-03-02T16:33:56.647Z,4.87
2023-03-02T16:34:56.650Z,5.19
2023-03-02T16:35:56.653Z,5.06
2023-03-02T16:36:56.701Z,5.26
2023-03-02T16:37:57.617Z,5.47
2023-03-02T16:38:56.662Z,4.88
2023-03-02T16:39:56.688Z,5.11
2023-03-02T16:40:57.260Z,4.89
2023-03-02T16:41:56.692Z,5.34